createdAt,value
2022-08-21T00:01:21.617Z,30.92
2022-08-21T00:06:24.858Z,30.45
2022-08-21T00:11:28.035Z,30.33
2022-08-21T00:16:29.719Z,27.50
2022-08-21T00:21:31.390Z,28.55
2022-08-21T00:26:33.125Z,27.08
2022-08-21T00:31:34.893Z,26.63
2022-08-21T00:36:37.108Z,26.75
2022-08-21T00:41:39.866Z,23.80
2022-08-21T00:46:42.358Z,28.02
2022-08-21T00:51:51.581Z,26.42
2022-08-21T00:56:57.983Z,22.92
2022-08-21T01:02:01.876Z,22.38
2022-08-21T01:07:04.332Z,28.83
2022-08-21T01:12:06.404Z,25.38
2022-08-21T01:17:09.247Z,22.40
2022-08-21T01:22:11.009Z,23.52
2022-08-21T01:27:12.834Z,29.33
2022-08-21T01:32:18.366Z,24.25
2022-08-21T01:37:22.371Z,27.40
2022-08-21T01:42:24.334Z,26.15
2022-08-21T01:47:26.252Z,27.63
2022-08-21T01:52:28.066Z,27.58
2022-08-21T01:57:29.832Z,31.35
2022-08-21T02:02:31.471Z,38.58
2022-08-21T02:07:55.352Z,51.33
2022-08-21T02:12:58.286Z,55.92
2022-08-21T02:18:02.838Z,51.35
2022-08-21T02:23:06.101Z,49.58
2022-08-21T02:28:11.668Z,53.72
2022-08-21T02:33:14.116Z,51.42
2022-08-21T02:38:19.261Z,48.80
2022-08-21T02:43:23.659Z,47.45
2022-08-21T02:48:29.379Z,51.70
2022-08-21T02:53:32.500Z,43.15
2022-08-21T02:58:39.436Z,40.75
2022-08-21T03:03:44.881Z,42.50
2022-08-21T03:08:46.876Z,38.90
2022-08-21T03:13:48.503Z,36.60
2022-08-21T03:18:50.200Z,41.10
2022-08-21T03:23:51.937Z,35.63
2022-08-21T03:28:53.882Z,38.35
2022-08-21T03:33:56.553Z,40.75
2022-08-21T03:38:58.227Z,37.15
2022-08-21T03:44:00.196Z,35.03
2022-08-21T03:49:01.917Z,33.33
2022-08-21T03:54:04.130Z,31.70
2022-08-21T03:59:06.486Z,30.60
2022-08-21T04:04:08.105Z,28.95
2022-08-21T04:09:09.745Z,29.85
2022-08-21T04:14:11.372Z,26.65
2022-08-21T04:19:16.998Z,26.95
2022-08-21T04:24:18.668Z,28.40
2022-08-21T04:29:20.866Z,27.77
2022-08-21T04:34:22.561Z,28.55
2022-08-21T04:39:25.226Z,27.45
2022-08-21T04:44:32.024Z,26.73
2022-08-21T04:49:34.115Z,26.15
2022-08-21T04:54:36.112Z,25.23
2022-08-21T04:59:44.114Z,26.35
2022-08-21T05:04:54.537Z,27.90
2022-08-21T05:09:56.231Z,22.50
2022-08-21T05:14:57.830Z,23.42
2022-08-21T05:19:59.475Z,32.03
2022-08-21T05:25:01.097Z,28.05
2022-08-21T05:30:04.337Z,29.38
2022-08-21T05:35:07.804Z,27.95
2022-08-21T05:40:21.906Z,28.48
2022-08-21T05:45:41.521Z,23.48
2022-08-21T05:50:48.001Z,27.20
2022-08-21T05:55:49.848Z,26.23
2022-08-21T06:00:53.786Z,23.90
2022-08-21T06:05:56.624Z,21.17
2022-08-21T06:11:00.689Z,24.55
2022-08-21T06:16:15.731Z,19.50
2022-08-21T06:21:18.061Z,20.55
2022-08-21T06:26:21.096Z,20.67
2022-08-21T06:31:24.780Z,18.45
2022-08-21T06:36:26.864Z,20.20
2022-08-21T06:41:28.542Z,21.50
2022-08-21T06:46:31.249Z,20.50
2022-08-21T06:51:32.839Z,18.50
2022-08-21T06:56:36.206Z,15.80
2022-08-21T07:01:37.844Z,18.67
2022-08-21T07:06:39.498Z,17.48
2022-08-21T07:11:45.369Z,21.63
2022-08-21T07:16:50.073Z,23.63
2022-08-21T07:21:59.422Z,20.35
2022-08-21T07:27:01.044Z,20.42
2022-08-21T07:32:02.832Z,18.98
2022-08-21T07:37:09.935Z,19.20
2022-08-21T07:42:11.873Z,18.92
2022-08-21T07:47:13.522Z,16.40
2022-08-21T07:52:15.159Z,15.02
2022-08-21T07:57:16.885Z,14.32
2022-08-21T08:02:28.417Z,13.32
2022-08-21T08:07:30.324Z,15.02
2022-08-21T08:12:31.984Z,11.48
2022-08-21T08:17:33.657Z,16.17
2022-08-21T08:22:37.243Z,11.40
2022-08-21T08:27:39.941Z,11.65
2022-08-21T08:32:42.365Z,11.57
2022-08-21T08:37:52.284Z,11.73
2022-08-21T08:42:54.556Z,12.77
2022-08-21T08:48:03.968Z,9.35
2022-08-21T08:53:09.618Z,7.70
2022-08-21T08:58:21.410Z,8.00
2022-08-21T09:03:27.688Z,8.68
2022-08-21T09:08:30.364Z,9.05
2022-08-21T09:14:07.545Z,7.38
2022-08-21T09:19:31.248Z,8.48
2022-08-21T09:24:50.005Z,7.65
2022-08-21T09:29:55.307Z,7.40
2022-08-21T09:35:04.584Z,7.40
2022-08-21T09:40:21.889Z,5.55
2022-08-21T09:45:23.560Z,6.47
2022-08-21T09:50:28.543Z,6.78
2022-08-21T09:55:53.570Z,4.28
2022-08-21T10:01:01.167Z,5.00
2022-08-21T10:06:09.698Z,4.60
2022-08-21T10:11:15.526Z,3.80
2022-08-21T10:16:48.190Z,3.30
2022-08-21T10:22:07.641Z,3.40
2022-08-21T10:27:40.050Z,3.75
2022-08-21T10:33:49.676Z,2.80
2022-08-21T10:39:36.175Z,2.88
2022-08-21T10:45:00.243Z,3.05
2022-08-21T10:50:28.026Z,3.28
2022-08-21T10:55:55.467Z,3.05
2022-08-21T11:01:10.184Z,2.97
2022-08-21T11:06:32.928Z,2.85
2022-08-21T11:11:50.120Z,2.95
2022-08-21T11:17:16.428Z,2.53
2022-08-21T11:22:27.524Z,2.42
2022-08-21T11:27:35.248Z,2.90
2022-08-21T11:32:42.891Z,2.60
2022-08-21T11:38:35.743Z,2.88
2022-08-21T11:43:47.124Z,2.70
2022-08-21T11:49:06.773Z,2.72
2022-08-21T11:54:30.693Z,2.40
2022-08-21T11:59:46.427Z,2.83
2022-08-21T12:04:58.580Z,2.53
2022-08-21T12:10:06.110Z,3.40
2022-08-21T12:15:23.100Z,2.60
2022-08-21T12:20:28.246Z,3.00
2022-08-21T12:25:39.107Z,2.47
2022-08-21T12:30:46.306Z,2.50
2022-08-21T12:35:50.565Z,2.72
2022-08-21T12:40:57.863Z,2.35
2022-08-21T12:46:05.349Z,2.67
2022-08-21T12:51:17.978Z,2.60
2022-08-21T12:56:24.644Z,2.50
2022-08-21T13:01:38.180Z,2.53
2022-08-21T13:06:46.124Z,2.13
2022-08-21T13:11:49.971Z,2.30
2022-08-21T13:16:59.823Z,2.13
2022-08-21T13:22:02.475Z,2.28
2022-08-21T13:27:27.444Z,2.60
2022-08-21T13:32:31.334Z,2.20
2022-08-21T13:37:33.020Z,2.35
2022-08-21T13:42:34.807Z,2.17
2022-08-21T13:47:36.657Z,2.17
2022-08-21T13:52:49.280Z,2.70
2022-08-21T13:58:01.648Z,2.50
2022-08-21T14:03:09.012Z,2.65
2022-08-21T14:08:21.381Z,2.40
2022-08-21T14:13:44.368Z,2.20
2022-08-21T14:18:53.636Z,2.05
2022-08-21T14:24:35.781Z,2.30
2022-08-21T14:29:42.104Z,2.15
2022-08-21T14:34:45.703Z,2.50
2022-08-21T14:39:48.539Z,2.08
2022-08-21T14:44:50.359Z,2.10
2022-08-21T14:49:54.804Z,2.30
2022-08-21T14:54:56.456Z,2.90
2022-08-21T15:00:01.762Z,2.38
2022-08-21T15:05:04.795Z,2.70
2022-08-21T15:10:07.535Z,2.75
2022-08-21T15:15:11.692Z,3.20
2022-08-21T15:20:15.836Z,3.20
2022-08-21T15:25:17.485Z,3.10
2022-08-21T15:30:19.370Z,3.20
2022-08-21T15:35:21.130Z,3.15
2022-08-21T15:40:23.416Z,3.72
2022-08-21T15:45:25.448Z,3.25
2022-08-21T15:50:29.051Z,3.22
2022-08-21T15:55:31.313Z,3.10
2022-08-21T16:00:36.378Z,3.25
2022-08-21T16:05:38.094Z,3.45
2022-08-21T16:10:40.976Z,3.00
2022-08-21T16:15:42.639Z,3.53
2022-08-21T16:20:44.715Z,3.83
2022-08-21T16:25:47.345Z,3.70
2022-08-21T16:30:51.329Z,4.10
2022-08-21T16:35:53.227Z,4.10
2022-08-21T16:40:55.481Z,3.72
2022-08-21T16:45:58.456Z,3.58
2022-08-21T16:51:00.169Z,3.55
2022-08-21T16:56:02.185Z,3.00
2022-08-21T17:01:07.602Z,3.38
2022-08-21T17:06:10.278Z,3.17
2022-08-21T17:11:36.514Z,3.15
2022-08-21T17:16:42.571Z,2.85
2022-08-21T17:21:44.457Z,3.50
2022-08-21T17:26:46.278Z,3.33
2022-08-21T17:31:47.941Z,2.80
2022-08-21T17:36:49.624Z,2.70
2022-08-21T17:41:56.357Z,2.60
2022-08-21T17:46:59.864Z,2.55
2022-08-21T17:52:01.620Z,3.00
2022-08-21T17:57:04.699Z,3.30
2022-08-21T18:02:10.432Z,3.05
2022-08-21T18:07:31.888Z,2.95
2022-08-21T18:12:35.236Z,2.67
2022-08-21T18:17:37.244Z,3.30
2022-08-21T18:22:38.903Z,3.15
2022-08-21T18:27:44.133Z,2.90
2022-08-21T18:32:46.515Z,3.47
2022-08-21T18:37:48.165Z,3.40
2022-08-21T18:42:55.872Z,4.50
2022-08-21T18:47:58.771Z,4.88
2022-08-21T18:53:00.402Z,5.78
2022-08-21T18:58:02.655Z,5.90
2022-08-21T19:03:06.005Z,6.63
2022-08-21T19:08:13.119Z,7.43
2022-08-21T19:13:18.488Z,7.65
2022-08-21T19:23:52.720Z,10.80
2022-08-21T19:34:26.331Z,11.40
2022-08-21T19:39:28.157Z,13.43
2022-08-21T19:44:31.027Z,20.35
2022-08-21T19:49:34.703Z,17.15
2022-08-21T19:54:36.534Z,11.43
2022-08-21T19:59:40.651Z,8.30
2022-08-21T20:04:53.601Z,8.07
2022-08-21T20:09:56.911Z,7.70
2022-08-21T20:14:59.351Z,7.32
2022-08-21T20:20:00.988Z,11.32
2022-08-21T20:25:03.809Z,9.43
2022-08-21T20:30:07.460Z,7.18
2022-08-21T20:35:12.344Z,6.18
2022-08-21T20:40:16.541Z,6.32
2022-08-21T20:45:27.228Z,10.65
2022-08-21T20:50:31.847Z,10.00
2022-08-21T20:55:37.374Z,7.70
2022-08-21T21:00:41.834Z,7.65
2022-08-21T21:05:50.247Z,8.43
2022-08-21T21:10:57.297Z,17.60
2022-08-21T21:16:17.998Z,11.23
2022-08-21T21:21:32.968Z,10.40
2022-08-21T21:26:50.342Z,7.88
2022-08-21T21:31:53.814Z,9.05
2022-08-21T21:37:13.587Z,9.35
2022-08-21T21:42:30.368Z,7.55
2022-08-21T21:48:14.129Z,7.32
2022-08-21T21:53:51.501Z,8.25
2022-08-21T21:59:17.699Z,8.57
2022-08-21T22:04:32.227Z,8.55
2022-08-21T22:09:39.312Z,8.02
2022-08-21T22:14:42.289Z,11.50
2022-08-21T22:19:46.243Z,10.20
2022-08-21T22:24:54.211Z,7.95
2022-08-21T22:30:01.305Z,7.63
2022-08-21T22:35:18.386Z,8.60
2022-08-21T22:40:26.176Z,9.75
2022-08-21T22:45:28.977Z,9.98
2022-08-21T22:50:33.447Z,10.40
2022-08-21T22:55:43.769Z,8.93
2022-08-21T23:00:56.903Z,7.88
2022-08-21T23:06:03.164Z,7.65
2022-08-21T23:11:20.881Z,7.10
2022-08-21T23:16:52.921Z,6.85
2022-08-21T23:22:09.677Z,6.45
2022-08-21T23:27:27.153Z,28.05
2022-08-21T23:33:12.025Z,30.50
2022-08-21T23:38:45.484Z,23.05
2022-08-21T23:43:59.609Z,16.27
2022-08-21T23:49:29.176Z,10.88
2022-08-21T23:54:51.255Z,7.50
2022-08-21T23:59:53.343Z,7.18
